createdAt,value
2018-04-13T00:00:01.631Z,22.50
2018-04-13T00:01:01.459Z,21.10
2018-04-13T00:02:01.470Z,22.00
2018-04-13T00:03:01.285Z,21.90
2018-04-13T00:04:01.273Z,21.00
2018-04-13T00:05:01.139Z,20.20
2018-04-13T00:06:01.091Z,20.30
2018-04-13T00:07:00.954Z,21.20
2018-04-13T00:08:00.984Z,20.50
2018-04-13T00:09:00.804Z,20.80
2018-04-13T00:10:00.841Z,21.10
2018-04-13T00:11:00.652Z,21.60
2018-04-13T00:12:00.616Z,20.80
2018-04-13T00:13:00.504Z,20.70
2018-04-13T00:14:00.518Z,20.90
2018-04-13T00:15:00.325Z,21.50
2018-04-13T00:16:00.354Z,21.30
2018-04-13T00:17:00.183Z,21.30
2018-04-13T00:18:00.129Z,21.30
2018-04-13T00:19:00.012Z,21.80
2018-04-13T00:20:00.044Z,21.30
2018-04-13T00:20:59.885Z,22.30
2018-04-13T00:21:59.880Z,21.00
2018-04-13T00:22:59.689Z,20.30
2018-04-13T00:23:59.660Z,20.10
2018-04-13T00:24:59.534Z,19.80
2018-04-13T00:25:59.623Z,19.80
2018-04-13T00:26:59.405Z,20.90
2018-04-13T00:27:59.386Z,20.60
2018-04-13T00:28:59.224Z,21.50
2018-04-13T00:29:59.188Z,20.80
2018-04-13T00:30:59.064Z,21.10
2018-04-13T00:31:59.144Z,21.80
2018-04-13T00:32:58.912Z,20.80
2018-04-13T00:33:58.902Z,21.60
2018-04-13T00:34:58.749Z,21.00
2018-04-13T00:35:58.752Z,20.80
2018-04-13T00:36:58.595Z,21.30
2018-04-13T00:37:58.650Z,22.10
2018-04-13T00:38:58.445Z,21.80
2018-04-13T00:39:58.453Z,21.50
2018-04-13T00:40:58.431Z,21.90
2018-04-13T00:41:58.518Z,22.00
2018-04-13T00:42:58.144Z,21.90
2018-04-13T00:45:40.014Z,22.10
2018-04-13T00:46:40.017Z,21.60
2018-04-13T00:47:39.835Z,21.40
2018-04-13T00:51:22.976Z,21.20
2018-04-13T00:52:23.085Z,21.50
2018-04-13T00:53:22.817Z,21.00
2018-04-13T00:54:22.797Z,21.60
2018-04-13T00:55:22.664Z,22.00
2018-04-13T00:56:22.638Z,21.50
2018-04-13T00:57:22.504Z,22.10
2018-04-13T00:58:22.522Z,22.50
2018-04-13T00:59:22.339Z,22.20
2018-04-13T01:00:22.328Z,21.70
2018-04-13T01:01:22.216Z,22.10
2018-04-13T01:02:22.253Z,22.10
2018-04-13T01:03:22.034Z,23.20
2018-04-13T01:04:22.037Z,22.70
2018-04-13T01:05:21.870Z,23.00
2018-04-13T01:06:21.907Z,21.50
2018-04-13T01:07:21.726Z,21.30
2018-04-13T01:08:21.653Z,21.80
2018-04-13T01:09:21.559Z,22.00
2018-04-13T01:10:21.566Z,21.60
2018-04-13T01:11:21.398Z,21.40
2018-04-13T01:12:21.513Z,22.60
2018-04-13T01:13:21.232Z,23.00
2018-04-13T01:14:21.189Z,22.80
2018-04-13T01:15:21.101Z,23.30
2018-04-13T01:16:21.107Z,23.20
2018-04-13T01:17:20.932Z,23.10
2018-04-13T01:18:20.912Z,23.20
2018-04-13T01:19:20.753Z,23.20
2018-04-13T01:20:20.720Z,22.60
2018-04-13T01:21:20.594Z,22.80
2018-04-13T01:22:20.676Z,22.30
2018-04-13T01:23:20.455Z,23.60
2018-04-13T01:24:20.437Z,23.40
2018-04-13T01:25:20.280Z,23.30
2018-04-13T01:26:20.243Z,24.60
2018-04-13T01:27:20.117Z,25.90
2018-04-13T01:28:21.064Z,25.50
2018-04-13T01:29:19.954Z,25.60
2018-04-13T01:30:19.966Z,27.00
2018-04-13T01:31:19.806Z,26.80
2018-04-13T01:32:19.770Z,27.30
2018-04-13T01:33:19.659Z,26.20
2018-04-13T01:34:19.692Z,27.40
2018-04-13T01:35:19.486Z,26.60
2018-04-13T01:36:19.490Z,27.50
2018-04-13T01:37:19.315Z,25.70
2018-04-13T01:38:19.340Z,25.70
2018-04-13T01:39:19.162Z,25.50
2018-04-13T01:40:19.213Z,26.10
2018-04-13T01:41:18.995Z,25.10
2018-04-13T01:42:19.032Z,25.50
2018-04-13T01:43:18.865Z,25.10
2018-04-13T01:44:18.832Z,25.10
2018-04-13T01:45:18.698Z,24.90
2018-04-13T01:46:18.639Z,25.10
2018-04-13T01:47:18.526Z,25.10
2018-04-13T01:48:18.574Z,25.10
2018-04-13T01:49:18.432Z,25.00
2018-04-13T01:50:18.356Z,25.40
2018-04-13T01:51:18.199Z,25.00
2018-04-13T01:52:18.164Z,26.50
2018-04-13T01:53:18.047Z,25.50
2018-04-13T01:54:18.135Z,26.60
2018-04-13T01:55:17.894Z,25.30
2018-04-13T01:56:17.880Z,26.80
2018-04-13T01:57:17.734Z,27.60
2018-04-13T01:58:17.692Z,28.70
2018-04-13T01:59:17.611Z,27.50
2018-04-13T02:00:17.603Z,27.30
2018-04-13T02:01:17.405Z,26.70
2018-04-13T02:02:17.409Z,27.20
2018-04-13T02:03:17.240Z,26.90
2018-04-13T02:04:17.264Z,25.90
2018-04-13T02:05:17.092Z,26.60
2018-04-13T02:06:17.128Z,27.60
2018-04-13T02:07:16.934Z,27.40
2018-04-13T02:08:16.941Z,28.10
2018-04-13T02:09:16.784Z,27.50
2018-04-13T02:10:16.745Z,27.60
2018-04-13T02:11:16.614Z,27.00
2018-04-13T02:12:16.666Z,27.40
2018-04-13T02:13:16.451Z,27.40
2018-04-13T02:14:16.510Z,27.80
2018-04-13T02:15:16.313Z,27.90
2018-04-13T02:16:16.277Z,26.60
2018-04-13T02:17:16.131Z,27.30
2018-04-13T02:18:16.196Z,26.60
2018-04-13T02:19:15.980Z,26.30
2018-04-13T02:20:15.960Z,27.20
2018-04-13T02:21:15.841Z,27.10
2018-04-13T02:22:15.803Z,27.60
2018-04-13T02:23:15.647Z,27.00
2018-04-13T02:24:15.705Z,27.00
2018-04-13T02:25:15.515Z,26.00
2018-04-13T02:26:15.515Z,26.90
2018-04-13T02:27:15.342Z,26.80
2018-04-13T02:28:15.329Z,27.50
2018-04-13T02:29:15.180Z,27.50
2018-04-13T02:30:15.174Z,26.10
2018-04-13T02:31:15.016Z,27.00
2018-04-13T02:32:15.057Z,27.40
2018-04-13T02:33:14.850Z,28.50
2018-04-13T02:34:14.929Z,29.80
2018-04-13T02:35:14.719Z,29.80
2018-04-13T02:36:14.705Z,29.30
2018-04-13T02:37:14.530Z,30.90
2018-04-13T02:38:14.580Z,31.60
2018-04-13T02:39:14.377Z,35.90
2018-04-13T02:40:14.394Z,36.10
2018-04-13T02:41:14.231Z,38.20
2018-04-13T02:42:14.189Z,40.90
2018-04-13T02:43:14.063Z,42.40
2018-04-13T02:44:14.102Z,45.40
2018-04-13T02:45:13.899Z,42.30
2018-04-13T02:46:13.935Z,47.20
2018-04-13T02:47:13.752Z,46.30
2018-04-13T02:48:13.719Z,47.60
2018-04-13T02:49:13.576Z,45.80
2018-04-13T02:50:13.521Z,46.70
2018-04-13T02:51:13.435Z,44.50
2018-04-13T02:52:13.443Z,42.50
2018-04-13T02:53:13.249Z,44.30
2018-04-13T02:54:13.247Z,43.20
2018-04-13T02:55:13.098Z,43.10
2018-04-13T02:56:13.092Z,43.70
2018-04-13T02:57:13.028Z,47.00
2018-04-13T02:58:13.068Z,46.50
2018-04-13T02:59:12.785Z,46.10
2018-04-13T03:00:13.292Z,46.10
2018-04-13T03:01:12.633Z,46.40
2018-04-13T03:02:12.579Z,43.30
2018-04-13T03:03:12.456Z,43.40
2018-04-13T03:04:12.489Z,41.80
2018-04-13T03:05:12.288Z,43.40
2018-04-13T03:06:12.328Z,41.70
2018-04-13T03:07:12.132Z,38.90
2018-04-13T03:08:12.105Z,40.00
2018-04-13T03:09:11.987Z,40.10
2018-04-13T03:10:12.018Z,41.40
2018-04-13T03:11:11.827Z,43.40
2018-04-13T03:12:11.864Z,40.80
2018-04-13T03:13:11.656Z,39.30
2018-04-13T03:14:11.647Z,42.90
2018-04-13T03:15:11.483Z,43.90
2018-04-13T03:16:11.444Z,47.50
2018-04-13T03:17:11.365Z,41.00
2018-04-13T03:18:11.356Z,36.20
2018-04-13T03:19:11.176Z,35.80
2018-04-13T03:20:11.163Z,35.00
2018-04-13T03:21:11.032Z,34.70
2018-04-13T03:22:11.000Z,36.70
2018-04-13T03:23:10.846Z,33.60
2018-04-13T03:24:10.890Z,32.70
2018-04-13T03:25:10.690Z,33.90
2018-04-13T03:26:10.694Z,31.80
2018-04-13T03:27:10.561Z,31.90
2018-04-13T03:28:10.494Z,32.60
2018-04-13T03:29:10.371Z,32.30
2018-04-13T03:30:10.420Z,33.20
2018-04-13T03:31:10.211Z,33.30
2018-04-13T03:32:10.227Z,33.20
2018-04-13T03:33:10.064Z,35.10
2018-04-13T03:34:10.070Z,34.90
2018-04-13T03:35:09.885Z,37.10
2018-04-13T03:36:09.942Z,38.10
2018-04-13T03:37:09.729Z,37.00
2018-04-13T03:38:09.784Z,39.00
2018-04-13T03:39:09.568Z,38.80
2018-04-13T03:40:09.557Z,43.90
2018-04-13T03:41:09.403Z,40.90
2018-04-13T03:42:09.365Z,39.30
2018-04-13T03:43:09.275Z,39.00
2018-04-13T03:44:09.271Z,37.40
2018-04-13T03:45:09.089Z,39.90
2018-04-13T03:46:09.090Z,40.10
2018-04-13T03:47:08.948Z,38.30
2018-04-13T03:48:08.923Z,36.00
2018-04-13T03:49:08.767Z,38.60
2018-04-13T03:50:08.808Z,37.60
2018-04-13T03:51:08.604Z,36.80
2018-04-13T03:52:08.604Z,37.20
2018-04-13T03:53:08.490Z,36.20
2018-04-13T03:54:08.414Z,34.30
2018-04-13T03:55:08.289Z,33.60
2018-04-13T03:56:08.335Z,33.30
2018-04-13T03:57:08.126Z,32.80
2018-04-13T03:58:08.177Z,32.90
2018-04-13T03:59:07.999Z,33.60
2018-04-13T04:00:07.956Z,33.00
2018-04-13T04:01:07.804Z,34.60
2018-04-13T04:02:07.755Z,33.30
2018-04-13T04:03:07.638Z,32.70
2018-04-13T04:04:07.708Z,34.50
2018-04-13T04:05:07.478Z,33.30
2018-04-13T04:06:07.467Z,34.50
2018-04-13T04:07:07.323Z,32.60
2018-04-13T04:08:07.282Z,33.40
2018-04-13T04:09:07.175Z,34.60
2018-04-13T04:10:07.188Z,32.50
2018-04-13T04:11:06.995Z,32.90
2018-04-13T04:12:07.009Z,33.70
2018-04-13T04:13:06.846Z,34.70
2018-04-13T04:14:06.854Z,33.20
2018-04-13T04:15:06.677Z,34.00
2018-04-13T04:16:06.827Z,33.30
2018-04-13T04:17:06.520Z,34.70
2018-04-13T04:18:06.530Z,34.20
2018-04-13T04:19:06.476Z,33.00
2018-04-13T04:20:06.341Z,34.20
2018-04-13T04:21:06.214Z,34.60
2018-04-13T04:22:06.247Z,34.80
2018-04-13T04:23:06.050Z,34.00
2018-04-13T04:24:06.134Z,34.80
2018-04-13T04:25:05.876Z,36.50
2018-04-13T04:26:05.901Z,35.60
2018-04-13T04:27:05.713Z,37.60
2018-04-13T04:28:05.670Z,36.60
2018-04-13T04:29:05.569Z,38.30
2018-04-13T04:30:05.623Z,38.80
2018-04-13T04:31:05.421Z,39.10
2018-04-13T04:32:05.461Z,40.50
2018-04-13T04:33:05.248Z,40.10
2018-04-13T04:34:05.202Z,42.70
2018-04-13T04:35:05.071Z,44.30
2018-04-13T04:36:05.152Z,42.30
2018-04-13T04:37:04.912Z,44.80
2018-04-13T04:38:04.936Z,43.10
2018-04-13T04:39:04.747Z,43.70
2018-04-13T04:40:04.797Z,43.90
2018-04-13T04:41:04.595Z,44.70
2018-04-13T04:43:46.519Z,43.50
2018-04-13T04:44:46.544Z,48.70
2018-04-13T04:45:46.372Z,49.50
2018-04-13T04:46:46.284Z,48.30
2018-04-13T04:47:46.195Z,50.40
2018-04-13T04:48:46.131Z,48.90
2018-04-13T04:49:46.068Z,49.30
2018-04-13T04:50:45.976Z,52.20
2018-04-13T04:51:45.876Z,49.60
2018-04-13T04:52:45.895Z,48.70
2018-04-13T04:53:45.719Z,51.10
2018-04-13T04:54:45.683Z,51.80
2018-04-13T04:55:45.623Z,51.10
2018-04-13T04:56:45.587Z,50.20
2018-04-13T04:57:45.402Z,49.70
2018-04-13T04:58:45.354Z,49.00
2018-04-13T04:59:45.257Z,48.40
2018-04-13T05:02:10.100Z,50.70
2018-04-13T05:03:09.967Z,47.80
2018-04-13T05:04:09.905Z,45.90
2018-04-13T05:05:09.781Z,47.10
2018-04-13T05:06:09.722Z,45.50
2018-04-13T05:07:09.664Z,45.40
2018-04-13T05:08:09.644Z,47.40
2018-04-13T05:09:09.463Z,45.80
2018-04-13T05:10:09.430Z,45.40
2018-04-13T05:11:09.368Z,46.70
2018-04-13T05:12:09.311Z,44.50
2018-04-13T05:13:09.148Z,44.50
2018-04-13T05:14:09.154Z,46.30
2018-04-13T05:15:08.992Z,43.90
2018-04-13T05:16:08.930Z,44.70
2018-04-13T05:17:08.848Z,42.80
2018-04-13T05:18:08.808Z,42.90
2018-04-13T05:19:08.665Z,42.90
2018-04-13T05:20:08.684Z,41.50
2018-04-13T05:21:08.501Z,41.50
2018-04-13T05:22:08.518Z,41.60
2018-04-13T05:23:08.353Z,42.80
2018-04-13T05:24:08.396Z,43.50
2018-04-13T05:25:08.189Z,45.70
2018-04-13T05:26:08.208Z,44.50
2018-04-13T05:27:08.216Z,42.90
2018-04-13T05:28:08.052Z,42.20
2018-04-13T05:29:07.865Z,40.20
2018-04-13T05:30:07.826Z,45.30
2018-04-13T05:31:07.701Z,45.50
2018-04-13T05:32:07.747Z,40.90
2018-04-13T05:33:07.610Z,41.50
2018-04-13T05:34:07.551Z,42.20
2018-04-13T05:35:07.414Z,44.30
2018-04-13T05:36:07.350Z,48.00
2018-04-13T05:37:07.261Z,49.80
2018-04-13T05:38:07.150Z,49.50
2018-04-13T05:39:07.112Z,50.60
2018-04-13T05:40:07.070Z,59.30
2018-04-13T05:41:06.904Z,63.90
2018-04-13T05:42:06.903Z,64.00
2018-04-13T05:43:06.769Z,65.70
2018-04-13T05:44:07.639Z,62.50
2018-04-13T05:45:06.579Z,62.30
2018-04-13T05:46:06.653Z,61.20
2018-04-13T05:47:06.510Z,62.00
2018-04-13T05:48:06.403Z,62.90
2018-04-13T05:49:06.371Z,65.20
2018-04-13T05:50:06.196Z,65.10
2018-04-13T05:51:06.116Z,63.80
2018-04-13T05:52:06.127Z,64.00
2018-04-13T05:53:05.933Z,65.30
2018-04-13T05:54:05.906Z,61.80
2018-04-13T05:55:05.779Z,65.80
2018-04-13T05:56:05.721Z,64.30
2018-04-13T05:57:05.620Z,63.20
2018-04-13T05:58:05.548Z,64.10
2018-04-13T05:59:05.479Z,60.40
2018-04-13T06:00:05.383Z,61.90
2018-04-13T06:01:05.313Z,63.20
2018-04-13T06:02:05.244Z,64.90
2018-04-13T06:03:05.134Z,66.20
2018-04-13T06:04:05.105Z,65.60
2018-04-13T06:05:04.973Z,65.40
2018-04-13T06:06:04.915Z,66.40
2018-04-13T06:07:04.821Z,67.10
2018-04-13T06:08:04.750Z,61.20
2018-04-13T06:09:04.749Z,65.20
2018-04-13T06:10:04.600Z,64.30
2018-04-13T06:11:04.500Z,63.10
2018-04-13T06:12:04.424Z,62.30
2018-04-13T06:13:04.338Z,65.20
2018-04-13T06:14:04.265Z,69.10
2018-04-13T06:15:04.202Z,78.80
2018-04-13T06:16:04.154Z,72.90
2018-04-13T06:17:04.032Z,67.90
2018-04-13T06:18:03.960Z,73.10
2018-04-13T06:19:03.855Z,67.70
2018-04-13T06:20:03.836Z,65.80
2018-04-13T06:21:03.698Z,60.30
2018-04-13T06:22:03.715Z,67.10
2018-04-13T06:23:03.564Z,66.40
2018-04-13T06:24:03.482Z,64.60
2018-04-13T06:25:03.413Z,62.80
2018-04-13T06:26:03.319Z,62.70
2018-04-13T06:27:03.213Z,62.40
2018-04-13T06:28:03.147Z,61.10
2018-04-13T06:29:03.053Z,62.80
2018-04-13T06:30:03.013Z,61.00
2018-04-13T06:31:02.904Z,62.90
2018-04-13T06:32:02.827Z,61.80
2018-04-13T06:33:02.746Z,61.40
2018-04-13T06:34:02.675Z,62.10
2018-04-13T06:35:02.597Z,63.00
2018-04-13T06:36:02.542Z,63.20
2018-04-13T06:37:02.424Z,63.00
2018-04-13T06:38:02.347Z,61.80
2018-04-13T06:39:02.269Z,63.90
2018-04-13T06:40:02.197Z,67.60
2018-04-13T06:41:02.109Z,66.60
2018-04-13T06:42:02.039Z,64.10
2018-04-13T06:43:01.998Z,65.60
2018-04-13T06:44:01.870Z,64.10
2018-04-13T06:45:01.805Z,64.20
2018-04-13T06:46:01.735Z,64.10
2018-04-13T06:47:01.624Z,65.50
2018-04-13T06:48:01.546Z,65.10
2018-04-13T06:49:01.471Z,65.50
2018-04-13T06:50:01.397Z,66.20
2018-04-13T06:51:01.465Z,64.90
2018-04-13T06:52:01.255Z,67.70
2018-04-13T06:53:01.147Z,67.30
2018-04-13T06:55:43.045Z,71.80
2018-04-13T06:56:43.041Z,75.70
2018-04-13T06:57:42.889Z,77.20
2018-04-13T06:58:42.826Z,75.80
2018-04-13T06:59:42.745Z,79.10
2018-04-13T07:00:42.765Z,76.00
2018-04-13T07:01:42.587Z,76.30
2018-04-13T07:02:42.507Z,76.20
2018-04-13T07:03:42.431Z,75.90
2018-04-13T07:04:42.364Z,79.40
2018-04-13T07:05:42.255Z,76.90
2018-04-13T07:06:42.216Z,78.80
2018-04-13T07:07:42.095Z,75.40
2018-04-13T07:08:42.027Z,75.40
2018-04-13T07:09:41.949Z,75.90
2018-04-13T07:10:41.864Z,75.30
2018-04-13T07:11:41.802Z,77.90
2018-04-13T07:12:41.742Z,76.50
2018-04-13T07:13:41.696Z,74.30
2018-04-13T07:14:41.550Z,76.70
2018-04-13T07:15:41.486Z,74.80
2018-04-13T07:16:41.395Z,75.30
2018-04-13T07:17:41.439Z,75.10
2018-04-13T07:18:41.241Z,74.10
2018-04-13T07:19:42.122Z,77.30
2018-04-13T07:20:41.096Z,77.60
2018-04-13T07:21:40.989Z,79.20
2018-04-13T07:22:41.207Z,80.20
2018-04-13T07:23:40.827Z,82.00
2018-04-13T07:24:40.771Z,81.60
2018-04-13T07:25:40.767Z,83.60
2018-04-13T07:26:40.732Z,80.80
2018-04-13T07:27:40.540Z,82.40
2018-04-13T07:28:40.450Z,83.10
2018-04-13T07:29:40.357Z,82.20
2018-04-13T07:30:40.317Z,84.40
2018-04-13T07:31:40.197Z,82.20
2018-04-13T07:32:40.175Z,81.10
2018-04-13T07:33:40.520Z,82.70
2018-04-13T07:34:39.983Z,80.70
2018-04-13T07:35:39.895Z,80.80
2018-04-13T07:36:39.828Z,80.10
2018-04-13T07:37:39.792Z,81.20
2018-04-13T07:38:39.658Z,81.00
2018-04-13T07:39:39.902Z,82.90
2018-04-13T07:40:39.505Z,81.20
2018-04-13T07:41:39.423Z,81.70
2018-04-13T07:42:39.368Z,81.80
2018-04-13T07:43:39.284Z,81.80
2018-04-13T07:44:39.195Z,83.50
2018-04-13T07:45:39.232Z,83.10
2018-04-13T07:46:39.172Z,84.00
2018-04-13T07:47:38.957Z,83.70
2018-04-13T07:48:38.899Z,83.60
2018-04-13T07:49:38.790Z,78.20
2018-04-13T07:50:38.900Z,79.70
2018-04-13T07:51:38.624Z,79.60
2018-04-13T07:52:38.559Z,76.80
2018-04-13T07:53:38.519Z,75.70
2018-04-13T07:54:38.409Z,78.00
2018-04-13T07:55:38.365Z,77.60
2018-04-13T07:56:38.267Z,79.10
2018-04-13T07:57:38.186Z,78.40
2018-04-13T07:58:38.137Z,79.00
2018-04-13T07:59:38.025Z,79.50
2018-04-13T08:00:37.942Z,79.30
2018-04-13T08:01:37.852Z,80.30
2018-04-13T08:02:37.782Z,78.50
2018-04-13T08:03:37.722Z,79.40
2018-04-13T08:04:37.621Z,80.40
2018-04-13T08:05:37.563Z,80.50
2018-04-13T08:06:37.488Z,78.00
2018-04-13T08:07:37.394Z,79.80
2018-04-13T08:08:37.327Z,79.70
2018-04-13T08:09:37.203Z,78.50
2018-04-13T08:10:37.324Z,79.30
2018-04-13T08:11:37.071Z,79.50
2018-04-13T08:12:37.342Z,79.70
2018-04-13T08:13:37.041Z,77.30
2018-04-13T08:14:36.858Z,78.40
2018-04-13T08:15:36.875Z,77.40
2018-04-13T08:16:36.700Z,77.90
2018-04-13T08:17:36.596Z,81.20
2018-04-13T08:20:18.599Z,82.80
2018-04-13T08:21:18.529Z,84.30
2018-04-13T08:22:18.415Z,84.70
2018-04-13T08:23:18.359Z,87.30
2018-04-13T08:24:18.260Z,87.70
2018-04-13T08:25:18.245Z,87.10
2018-04-13T08:26:18.122Z,87.00
2018-04-13T08:27:18.036Z,86.90
2018-04-13T08:28:18.642Z,88.50
2018-04-13T08:29:17.899Z,87.40
2018-04-13T08:30:17.813Z,87.30
2018-04-13T08:31:17.791Z,86.00
2018-04-13T08:32:17.649Z,87.40
2018-04-13T08:33:17.572Z,89.30
2018-04-13T08:34:17.489Z,89.70
2018-04-13T08:35:17.452Z,93.20
2018-04-13T08:36:17.320Z,93.00
2018-04-13T08:37:17.263Z,92.80
2018-04-13T08:38:17.166Z,90.60
2018-04-13T08:39:17.106Z,90.70
2018-04-13T08:40:17.042Z,89.50
2018-04-13T08:41:16.940Z,89.10
2018-04-13T08:42:16.853Z,90.20
2018-04-13T08:43:16.796Z,90.60
2018-04-13T08:44:16.700Z,90.00
2018-04-13T08:45:16.676Z,90.70
2018-04-13T08:46:17.185Z,89.70
2018-04-13T08:47:16.487Z,90.30
2018-04-13T08:48:16.393Z,91.70
2018-04-13T08:49:16.382Z,89.80
2018-04-13T08:50:16.254Z,89.70
2018-04-13T08:51:16.186Z,88.20
2018-04-13T08:52:16.110Z,87.60
2018-04-13T08:53:16.015Z,87.90
2018-04-13T08:54:15.925Z,88.20
2018-04-13T08:55:15.884Z,88.70
2018-04-13T08:56:15.787Z,87.10
2018-04-13T08:57:15.714Z,86.80
2018-04-13T08:58:15.643Z,88.30
2018-04-13T08:59:15.533Z,86.70
2018-04-13T09:00:15.457Z,86.70
2018-04-13T09:01:15.407Z,85.70
2018-04-13T09:02:15.297Z,85.80
2018-04-13T09:03:15.251Z,85.70
2018-04-13T09:04:15.144Z,85.40
2018-04-13T09:05:15.116Z,86.50
2018-04-13T09:06:15.023Z,86.30
2018-04-13T09:07:14.941Z,85.20
2018-04-13T09:08:14.840Z,83.90
2018-04-13T09:09:14.764Z,83.20
2018-04-13T09:10:14.679Z,82.70
2018-04-13T09:11:14.627Z,83.70
2018-04-13T09:12:14.532Z,82.30
2018-04-13T09:13:14.448Z,81.90
2018-04-13T09:14:14.373Z,81.90
2018-04-13T09:15:14.300Z,81.10
2018-04-13T09:16:14.224Z,81.30
2018-04-13T09:17:14.182Z,80.80
2018-04-13T09:18:14.076Z,82.30
2018-04-13T09:19:13.988Z,82.40
2018-04-13T09:20:13.894Z,79.10
2018-04-13T09:21:13.846Z,76.60
2018-04-13T09:22:13.750Z,75.80
2018-04-13T09:23:13.689Z,73.80
2018-04-13T09:24:13.592Z,70.10
2018-04-13T09:25:13.517Z,69.00
2018-04-13T09:26:13.485Z,70.60
2018-04-13T09:27:13.400Z,70.10
2018-04-13T09:28:13.284Z,64.50
2018-04-13T09:29:13.211Z,63.10
2018-04-13T09:30:13.223Z,52.60
2018-04-13T09:31:13.070Z,52.00
2018-04-13T09:32:12.993Z,43.00
2018-04-13T09:33:12.924Z,41.20
2018-04-13T09:34:12.831Z,35.90
2018-04-13T09:35:12.798Z,35.90
2018-04-13T09:36:12.671Z,41.20
2018-04-13T09:37:12.627Z,40.70
2018-04-13T09:38:12.543Z,40.10
2018-04-13T09:39:12.453Z,37.50
2018-04-13T09:40:12.376Z,35.70
2018-04-13T09:41:12.301Z,34.10
2018-04-13T09:42:12.242Z,33.70
2018-04-13T09:43:12.201Z,33.00
2018-04-13T09:44:12.056Z,34.10
2018-04-13T09:45:12.006Z,34.60
2018-04-13T09:46:11.989Z,35.20
2018-04-13T09:47:11.843Z,34.20
2018-04-13T09:48:11.782Z,33.00
2018-04-13T09:49:11.686Z,32.60
2018-04-13T09:50:11.606Z,33.40
2018-04-13T09:51:11.537Z,32.60
2018-04-13T09:52:11.474Z,31.00
2018-04-13T09:53:11.425Z,29.70
2018-04-13T09:54:11.326Z,27.70
2018-04-13T09:55:11.309Z,28.00
2018-04-13T09:56:11.156Z,26.60
2018-04-13T09:57:11.137Z,27.10
2018-04-13T09:58:11.023Z,27.70
2018-04-13T09:59:10.942Z,28.00
2018-04-13T10:00:10.853Z,28.10
2018-04-13T10:01:10.815Z,26.00
2018-04-13T10:02:10.721Z,24.90
2018-04-13T10:03:10.634Z,24.30
2018-04-13T10:04:10.559Z,24.20
2018-04-13T10:05:10.499Z,26.10
2018-04-13T10:06:10.388Z,25.50
2018-04-13T10:07:10.336Z,24.80
2018-04-13T10:08:10.307Z,26.10
2018-04-13T10:09:10.250Z,24.60
2018-04-13T10:10:10.077Z,24.80
2018-04-13T10:11:10.036Z,23.80
2018-04-13T10:12:09.938Z,25.60
2018-04-13T10:13:09.876Z,26.40
2018-04-13T10:14:09.795Z,25.50
2018-04-13T10:15:09.707Z,26.90
2018-04-13T10:16:09.621Z,25.70
2018-04-13T10:17:09.557Z,26.60
2018-04-13T10:18:09.464Z,27.00
2018-04-13T10:19:09.426Z,26.70
2018-04-13T10:20:09.312Z,26.20
2018-04-13T10:21:09.251Z,26.20
2018-04-13T10:22:09.160Z,26.70
2018-04-13T10:23:09.087Z,26.90
2018-04-13T10:24:09.020Z,26.80
2018-04-13T10:25:08.998Z,26.90
2018-04-13T10:26:08.849Z,27.20
2018-04-13T10:27:08.775Z,27.00
2018-04-13T10:28:08.704Z,26.80
2018-04-13T10:29:08.645Z,27.80
2018-04-13T10:30:08.551Z,27.80
2018-04-13T10:31:08.463Z,27.60
2018-04-13T10:32:08.385Z,26.00
2018-04-13T10:33:08.333Z,26.60
2018-04-13T10:34:08.261Z,25.70
2018-04-13T10:35:08.171Z,25.20
2018-04-13T10:36:08.068Z,24.50
2018-04-13T10:37:08.004Z,25.10
2018-04-13T10:38:07.918Z,24.30
2018-04-13T10:39:07.887Z,24.40
2018-04-13T10:40:07.767Z,24.50
2018-04-13T10:41:07.701Z,24.10
2018-04-13T10:42:07.607Z,24.40
2018-04-13T10:43:07.542Z,23.40
2018-04-13T10:44:07.471Z,23.70
2018-04-13T10:45:07.408Z,24.20
2018-04-13T10:46:07.299Z,23.20
2018-04-13T10:47:07.229Z,23.60
2018-04-13T10:48:07.164Z,22.70
2018-04-13T10:49:07.514Z,22.60
2018-04-13T10:50:06.984Z,22.70
2018-04-13T10:51:07.044Z,22.20
2018-04-13T10:52:06.850Z,22.90
2018-04-13T10:53:06.774Z,22.70
2018-04-13T10:54:06.681Z,23.10
2018-04-13T10:55:06.647Z,23.60
2018-04-13T10:56:06.527Z,21.90
2018-04-13T10:57:06.446Z,22.80
2018-04-13T10:58:06.405Z,23.10
2018-04-13T10:59:06.312Z,21.60
2018-04-13T11:00:06.237Z,21.70
2018-04-13T11:01:06.130Z,21.70
2018-04-13T11:02:06.078Z,21.10
2018-04-13T11:03:05.988Z,20.80
2018-04-13T11:04:05.927Z,21.70
2018-04-13T11:05:05.843Z,21.10
2018-04-13T11:06:05.753Z,21.30
2018-04-13T11:07:05.694Z,20.70
2018-04-13T11:08:05.585Z,20.30
2018-04-13T11:09:05.524Z,20.40
2018-04-13T11:10:05.464Z,20.70
2018-04-13T11:11:05.385Z,20.70
2018-04-13T11:12:05.277Z,19.50
2018-04-13T11:13:05.217Z,20.20
2018-04-13T11:14:05.121Z,20.50
2018-04-13T11:15:05.059Z,20.30
2018-04-13T11:16:04.987Z,18.90
2018-04-13T11:17:04.899Z,18.50
2018-04-13T11:18:04.806Z,19.40
2018-04-13T11:19:04.893Z,19.20
2018-04-13T11:20:04.649Z,20.00
2018-04-13T11:21:04.608Z,20.20
2018-04-13T11:22:04.496Z,19.50
2018-04-13T11:23:04.444Z,19.60
2018-04-13T11:24:04.359Z,19.60
2018-04-13T11:25:04.273Z,19.50
2018-04-13T11:26:04.204Z,19.10
2018-04-13T11:27:04.155Z,19.10
2018-04-13T11:28:04.028Z,19.10
2018-04-13T11:29:03.966Z,18.90
2018-04-13T11:30:03.874Z,19.20
2018-04-13T11:31:03.822Z,19.00
2018-04-13T11:32:03.721Z,18.70
2018-04-13T11:33:03.678Z,18.50
2018-04-13T11:34:03.578Z,18.10
2018-04-13T11:35:03.512Z,17.00
2018-04-13T11:36:03.419Z,16.80
2018-04-13T11:37:03.356Z,15.80
2018-04-13T11:38:03.275Z,14.70
2018-04-13T11:39:03.306Z,14.60
2018-04-13T11:40:03.105Z,14.70
2018-04-13T11:41:03.148Z,14.10
2018-04-13T11:42:02.970Z,13.40
2018-04-13T11:43:02.959Z,13.30
2018-04-13T11:44:02.802Z,13.10
2018-04-13T11:45:02.836Z,12.90
2018-04-13T11:46:02.639Z,13.00
2018-04-13T11:47:02.637Z,12.20
2018-04-13T11:48:02.524Z,12.40
2018-04-13T11:49:02.485Z,11.90
2018-04-13T11:50:02.335Z,11.60
2018-04-13T11:51:02.267Z,11.30
2018-04-13T11:52:02.182Z,11.80
2018-04-13T11:53:02.170Z,11.30
2018-04-13T11:54:02.044Z,11.10
2018-04-13T11:55:01.972Z,11.70
2018-04-13T11:56:01.866Z,11.50
2018-04-13T11:57:01.880Z,11.40
2018-04-13T11:58:01.697Z,11.70
2018-04-13T11:59:01.738Z,11.70
2018-04-13T12:00:01.558Z,11.70
2018-04-13T12:01:01.500Z,11.60
2018-04-13T12:02:01.422Z,11.80
2018-04-13T12:03:01.404Z,12.50
2018-04-13T12:04:01.258Z,12.50
2018-04-13T12:05:01.171Z,12.80
2018-04-13T12:06:01.233Z,12.00
2018-04-13T12:07:01.138Z,11.80
2018-04-13T12:08:00.951Z,12.20
2018-04-13T12:09:01.003Z,12.00
2018-04-13T12:10:00.803Z,12.20
2018-04-13T12:11:00.749Z,11.80
2018-04-13T12:12:00.630Z,11.90
2018-04-13T12:13:00.680Z,11.50
2018-04-13T12:14:00.495Z,11.20
2018-04-13T12:15:00.456Z,11.60
2018-04-13T12:16:00.317Z,11.00
2018-04-13T12:17:00.310Z,11.30
2018-04-13T12:18:00.154Z,12.30
2018-04-13T12:19:00.199Z,12.10
2018-04-13T12:20:00.011Z,12.10
2018-04-13T12:20:59.991Z,11.90
2018-04-13T12:21:59.864Z,11.60
2018-04-13T12:22:59.895Z,11.80
2018-04-13T12:23:59.726Z,12.00
2018-04-13T12:24:59.655Z,11.20
2018-04-13T12:25:59.569Z,10.80
2018-04-13T12:26:59.513Z,10.20
2018-04-13T12:27:59.397Z,11.10
2018-04-13T12:28:59.424Z,10.50
2018-04-13T12:29:59.281Z,10.00
2018-04-13T12:30:59.239Z,10.20
2018-04-13T12:31:59.728Z,10.10
2018-04-13T12:32:59.047Z,10.00
2018-04-13T12:33:58.942Z,10.30
2018-04-13T12:34:59.101Z,11.20
2018-04-13T12:35:58.794Z,11.20
2018-04-13T12:36:58.769Z,11.00
2018-04-13T12:37:58.643Z,11.70
2018-04-13T12:38:58.687Z,10.90
2018-04-13T12:39:58.509Z,11.20
2018-04-13T12:40:58.496Z,11.00
2018-04-13T12:41:58.324Z,10.90
2018-04-13T12:42:58.299Z,10.40
2018-04-13T12:43:58.172Z,10.10
2018-04-13T12:44:58.777Z,10.10
2018-04-13T12:45:58.048Z,10.30
2018-04-13T12:46:58.017Z,10.10
2018-04-13T12:47:57.862Z,9.80
2018-04-13T12:48:57.970Z,9.30
2018-04-13T12:49:57.748Z,9.30
2018-04-13T12:50:57.754Z,9.50
2018-04-13T12:51:57.587Z,9.20
2018-04-13T12:52:57.568Z,9.30
2018-04-13T12:53:57.407Z,9.10
2018-04-13T12:54:57.707Z,8.80
2018-04-13T12:55:57.278Z,9.60
2018-04-13T12:56:57.278Z,9.40
2018-04-13T12:57:57.089Z,9.30
2018-04-13T12:58:57.068Z,9.60
2018-04-13T12:59:56.950Z,9.40
2018-04-13T13:00:57.024Z,8.80
2018-04-13T13:01:56.799Z,7.90
2018-04-13T13:02:56.795Z,8.00